LIMP/PMF METAR and TAF weather

Enter ICAO airport designator
Station Type Date Time Source
LIMP METAR 2019/10/14 05:50 UTC NOAA

LIMP 140550Z VRB01KT 3000 MIFG FEW050 14/14 Q1022


Station Type Date Time Source
LIMP Decoded METAR 2019/10/14 05:50 UTC NOAA

Parma, Italy (LIMP) 44-49-17N 010-17-41E
Oct 14, 2019 - 01:50 AM EDT / 2019.10.14 0550 UTC
Wind: Variable at 1 MPH (1 KT):0
Visibility: 1 mile(s):0
Sky conditions: mostly clear
Weather: shallow fog
Temperature: 57 F (14 C)
Dew Point: 57 F (14 C)
Relative Humidity: 100%
Pressure (altimeter): 30.18 in. Hg (1022 hPa)
ob: LIMP 140550Z VRB01KT 3000 MIFG FEW050 14/14 Q1022
cycle: 6

Station Type Date Time Source
LIMP TAF 2019/10/14 06:21 UTC NOAA

TAF LIMP 140500Z 1406/1506 VRB05KT 4000 BR BKN050
TEMPO 1406/1408 1500 BCFG

Example: see airport list